sensor_id;sensor_type;location;lat;lon;timestamp;P1;durP1;ratioP1;P2;durP2;ratioP2
51358;SDS011;37448;51.588;7.248;2023-02-28T00:00:23;3.88;;;2.33;;
51358;SDS011;37448;51.588;7.248;2023-02-28T00:02:24;2.83;;;2.40;;
51358;SDS011;37448;51.588;7.248;2023-02-28T00:04:24;6.30;;;2.45;;
51358;SDS011;37448;51.588;7.248;2023-02-28T00:06:25;3.83;;;2.40;;
51358;SDS011;37448;51.588;7.248;2023-02-28T00:08:25;4.15;;;2.40;;
51358;SDS011;37448;51.588;7.248;2023-02-28T00:10:28;5.50;;;2.58;;
51358;SDS011;37448;51.588;7.248;2023-02-28T00:12:29;5.15;;;2.25;;
51358;SDS011;37448;51.588;7.248;2023-02-28T00:14:30;4.57;;;1.90;;
51358;SDS011;37448;51.588;7.248;2023-02-28T00:16:30;3.47;;;1.73;;
51358;SDS011;37448;51.588;7.248;2023-02-28T00:18:31;3.20;;;2.08;;
51358;SDS011;37448;51.588;7.248;2023-02-28T00:20:31;3.58;;;2.13;;
51358;SDS011;37448;51.588;7.248;2023-02-28T00:22:31;3.60;;;1.90;;
51358;SDS011;37448;51.588;7.248;2023-02-28T00:24:32;4.57;;;2.35;;
51358;SDS011;37448;51.588;7.248;2023-02-28T00:26:32;2.58;;;1.60;;
51358;SDS011;37448;51.588;7.248;2023-02-28T00:28:33;3.72;;;1.90;;
51358;SDS011;37448;51.588;7.248;2023-02-28T00:30:33;2.88;;;1.45;;
51358;SDS011;37448;51.588;7.248;2023-02-28T00:32:34;5.45;;;2.00;;
51358;SDS011;37448;51.588;7.248;2023-02-28T00:34:35;5.28;;;1.83;;
51358;SDS011;37448;51.588;7.248;2023-02-28T00:36:37;3.05;;;1.30;;
51358;SDS011;37448;51.588;7.248;2023-02-28T00:38:38;2.17;;;1.67;;
51358;SDS011;37448;51.588;7.248;2023-02-28T00:40:40;3.33;;;1.80;;
51358;SDS011;37448;51.588;7.248;2023-02-28T00:42:41;2.53;;;1.70;;
51358;SDS011;37448;51.588;7.248;2023-02-28T00:44:41;3.13;;;1.60;;
51358;SDS011;37448;51.588;7.248;2023-02-28T00:46:42;3.38;;;1.45;;
51358;SDS011;37448;51.588;7.248;2023-02-28T00:48:42;1.73;;;1.40;;
51358;SDS011;37448;51.588;7.248;2023-02-28T00:50:43;3.60;;;2.03;;
51358;SDS011;37448;51.588;7.248;2023-02-28T00:52:43;3.15;;;1.70;;
51358;SDS011;37448;51.588;7.248;2023-02-28T00:54:44;2.60;;;1.63;;
51358;SDS011;37448;51.588;7.248;2023-02-28T00:56:44;3.70;;;2.00;;
51358;SDS011;37448;51.588;7.248;2023-02-28T00:58:45;2.10;;;1.30;;
51358;SDS011;37448;51.588;7.248;2023-02-28T01:00:46;3.15;;;1.85;;
51358;SDS011;37448;51.588;7.248;2023-02-28T01:02:48;2.63;;;1.92;;
51358;SDS011;37448;51.588;7.248;2023-02-28T01:04:49;3.85;;;1.77;;
51358;SDS011;37448;51.588;7.248;2023-02-28T01:06:49;2.22;;;1.35;;
51358;SDS011;37448;51.588;7.248;2023-02-28T01:08:49;4.65;;;1.85;;
51358;SDS011;37448;51.588;7.248;2023-02-28T01:10:50;2.55;;;1.33;;
51358;SDS011;37448;51.588;7.248;2023-02-28T01:12:50;3.30;;;1.42;;
51358;SDS011;37448;51.588;7.248;2023-02-28T01:14:51;2.50;;;1.55;;
51358;SDS011;37448;51.588;7.248;2023-02-28T01:16:51;1.75;;;1.30;;
51358;SDS011;37448;51.588;7.248;2023-02-28T01:18:52;2.70;;;1.65;;
51358;SDS011;37448;51.588;7.248;2023-02-28T01:20:52;2.05;;;1.27;;
51358;SDS011;37448;51.588;7.248;2023-02-28T01:22:53;4.88;;;1.60;;
51358;SDS011;37448;51.588;7.248;2023-02-28T01:24:53;2.38;;;1.27;;
51358;SDS011;37448;51.588;7.248;2023-02-28T01:26:54;2.92;;;1.75;;
51358;SDS011;37448;51.588;7.248;2023-02-28T01:28:55;2.13;;;1.27;;
51358;SDS011;37448;51.588;7.248;2023-02-28T01:30:56;4.30;;;1.50;;
51358;SDS011;37448;51.588;7.248;2023-02-28T01:32:56;2.35;;;1.50;;
51358;SDS011;37448;51.588;7.248;2023-02-28T01:34:59;4.45;;;1.52;;
51358;SDS011;37448;51.588;7.248;2023-02-28T01:36:59;2.00;;;1.33;;
51358;SDS011;37448;51.588;7.248;2023-02-28T01:38:59;2.60;;;1.35;;
51358;SDS011;37448;51.588;7.248;2023-02-28T01:41:00;4.43;;;1.42;;
51358;SDS011;37448;51.588;7.248;2023-02-28T01:43:01;3.22;;;1.52;;
51358;SDS011;37448;51.588;7.248;2023-02-28T01:47:38;1.45;;;1.20;;
51358;SDS011;37448;51.588;7.248;2023-02-28T01:49:41;1.67;;;1.42;;
51358;SDS011;37448;51.588;7.248;2023-02-28T01:53:56;3.03;;;1.65;;
51358;SDS011;37448;51.588;7.248;2023-02-28T01:56:00;1.92;;;1.50;;
51358;SDS011;37448;51.588;7.248;2023-02-28T01:58:06;2.25;;;1.50;;
51358;SDS011;37448;51.588;7.248;2023-02-28T02:00:10;2.42;;;1.40;;
51358;SDS011;37448;51.588;7.248;2023-02-28T02:02:14;4.53;;;1.60;;
51358;SDS011;37448;51.588;7.248;2023-02-28T02:04:17;2.40;;;1.23;;
51358;SDS011;37448;51.588;7.248;2023-02-28T02:06:19;2.47;;;1.15;;
51358;SDS011;37448;51.588;7.248;2023-02-28T02:08:20;4.47;;;1.50;;
51358;SDS011;37448;51.588;7.248;2023-02-28T02:10:32;2.88;;;1.30;;
51358;SDS011;37448;51.588;7.248;2023-02-28T02:12:43;2.15;;;1.10;;
51358;SDS011;37448;51.588;7.248;2023-02-28T02:15:49;2.53;;;1.13;;
51358;SDS011;37448;51.588;7.248;2023-02-28T02:17:44;2.20;;;1.80;;
51358;SDS011;37448;51.588;7.248;2023-02-28T02:34:18;5.68;;;1.50;;
51358;SDS011;37448;51.588;7.248;2023-02-28T02:36:42;2.42;;;1.50;;
51358;SDS011;37448;51.588;7.248;2023-02-28T02:43:48;3.88;;;2.97;;
51358;SDS011;37448;51.588;7.248;2023-02-28T02:45:56;7.78;;;3.80;;
51358;SDS011;37448;51.588;7.248;2023-02-28T02:48:03;7.78;;;4.10;;
51358;SDS011;37448;51.588;7.248;2023-02-28T02:50:07;6.15;;;3.22;;
51358;SDS011;37448;51.588;7.248;2023-02-28T02:52:12;3.47;;;2.67;;
51358;SDS011;37448;51.588;7.248;2023-02-28T02:54:26;3.80;;;2.17;;
51358;SDS011;37448;51.588;7.248;2023-02-28T02:56:30;2.75;;;2.17;;
51358;SDS011;37448;51.588;7.248;2023-02-28T02:58:34;3.50;;;2.30;;
51358;SDS011;37448;51.588;7.248;2023-02-28T03:00:45;4.38;;;2.30;;
51358;SDS011;37448;51.588;7.248;2023-02-28T03:02:52;3.45;;;1.33;;
51358;SDS011;37448;51.588;7.248;2023-02-28T03:04:58;2.65;;;1.42;;
51358;SDS011;37448;51.588;7.248;2023-02-28T03:07:01;3.95;;;2.13;;
51358;SDS011;37448;51.588;7.248;2023-02-28T03:09:02;2.15;;;1.70;;
51358;SDS011;37448;51.588;7.248;2023-02-28T03:11:11;5.13;;;1.92;;
51358;SDS011;37448;51.588;7.248;2023-02-28T03:15:45;4.00;;;1.67;;
51358;SDS011;37448;51.588;7.248;2023-02-28T03:18:02;4.97;;;1.45;;
51358;SDS011;37448;51.588;7.248;2023-02-28T03:22:33;2.70;;;1.50;;
51358;SDS011;37448;51.588;7.248;2023-02-28T03:24:54;4.47;;;1.60;;
51358;SDS011;37448;51.588;7.248;2023-02-28T03:26:57;3.17;;;1.48;;
51358;SDS011;37448;51.588;7.248;2023-02-28T03:33:25;1.98;;;1.23;;
51358;SDS011;37448;51.588;7.248;2023-02-28T03:35:34;4.05;;;1.95;;
51358;SDS011;37448;51.588;7.248;2023-02-28T03:37:40;5.15;;;1.85;;
51358;SDS011;37448;51.588;7.248;2023-02-28T03:39:44;2.75;;;1.73;;
51358;SDS011;37448;51.588;7.248;2023-02-28T03:41:53;2.45;;;1.33;;
51358;SDS011;37448;51.588;7.248;2023-02-28T03:44:03;2.80;;;1.50;;
51358;SDS011;37448;51.588;7.248;2023-02-28T03:46:09;2.60;;;1.67;;
51358;SDS011;37448;51.588;7.248;2023-02-28T03:48:16;2.17;;;1.45;;
51358;SDS011;37448;51.588;7.248;2023-02-28T03:50:26;3.55;;;1.55;;
51358;SDS011;37448;51.588;7.248;2023-02-28T03:52:38;4.03;;;2.42;;
51358;SDS011;37448;51.588;7.248;2023-02-28T03:54:46;2.83;;;1.52;;
51358;SDS011;37448;51.588;7.248;2023-02-28T03:56:59;3.40;;;1.80;;
51358;SDS011;37448;51.588;7.248;2023-02-28T03:59:14;4.75;;;1.67;;
51358;SDS011;37448;51.588;7.248;2023-02-28T04:01:33;2.65;;;1.38;;
51358;SDS011;37448;51.588;7.248;2023-02-28T04:03:38;1.95;;;1.50;;
51358;SDS011;37448;51.588;7.248;2023-02-28T04:05:45;2.38;;;1.40;;
51358;SDS011;37448;51.588;7.248;2023-02-28T04:07:49;3.15;;;1.48;;
51358;SDS011;37448;51.588;7.248;2023-02-28T04:09:50;3.10;;;1.63;;
51358;SDS011;37448;51.588;7.248;2023-02-28T04:11:52;2.63;;;1.90;;
51358;SDS011;37448;51.588;7.248;2023-02-28T04:13:52;3.35;;;1.92;;
51358;SDS011;37448;51.588;7.248;2023-02-28T04:15:53;2.35;;;1.40;;
51358;SDS011;37448;51.588;7.248;2023-02-28T04:17:53;3.25;;;1.58;;
51358;SDS011;37448;51.588;7.248;2023-02-28T04:19:54;3.13;;;1.75;;
51358;SDS011;37448;51.588;7.248;2023-02-28T04:21:56;2.80;;;1.50;;
51358;SDS011;37448;51.588;7.248;2023-02-28T04:23:57;2.00;;;1.35;;
51358;SDS011;37448;51.588;7.248;2023-02-28T04:26:00;2.72;;;1.50;;
51358;SDS011;37448;51.588;7.248;2023-02-28T04:28:00;3.03;;;1.60;;
51358;SDS011;37448;51.588;7.248;2023-02-28T04:30:01;2.10;;;1.90;;
51358;SDS011;37448;51.588;7.248;2023-02-28T04:32:02;4.50;;;1.33;;
51358;SDS011;37448;51.588;7.248;2023-02-28T04:34:02;3.70;;;1.95;;
51358;SDS011;37448;51.588;7.248;2023-02-28T04:36:04;3.20;;;1.80;;
51358;SDS011;37448;51.588;7.248;2023-02-28T04:38:06;2.42;;;1.55;;
51358;SDS011;37448;51.588;7.248;2023-02-28T04:40:07;3.92;;;2.47;;
51358;SDS011;37448;51.588;7.248;2023-02-28T04:42:08;2.20;;;1.70;;
51358;SDS011;37448;51.588;7.248;2023-02-28T04:44:08;2.15;;;1.65;;
51358;SDS011;37448;51.588;7.248;2023-02-28T04:46:09;3.97;;;1.92;;
51358;SDS011;37448;51.588;7.248;2023-02-28T04:48:10;6.10;;;1.63;;
51358;SDS011;37448;51.588;7.248;2023-02-28T04:50:10;4.45;;;1.88;;
51358;SDS011;37448;51.588;7.248;2023-02-28T04:52:10;1.85;;;1.33;;
51358;SDS011;37448;51.588;7.248;2023-02-28T04:54:11;5.18;;;2.10;;
51358;SDS011;37448;51.588;7.248;2023-02-28T04:56:12;3.42;;;1.98;;
51358;SDS011;37448;51.588;7.248;2023-02-28T04:58:14;8.60;;;3.15;;
51358;SDS011;37448;51.588;7.248;2023-02-28T05:00:15;2.95;;;1.45;;
51358;SDS011;37448;51.588;7.248;2023-02-28T05:02:16;2.58;;;2.03;;
51358;SDS011;37448;51.588;7.248;2023-02-28T05:04:17;4.15;;;2.13;;
51358;SDS011;37448;51.588;7.248;2023-02-28T05:06:17;2.92;;;2.03;;
51358;SDS011;37448;51.588;7.248;2023-02-28T05:08:19;4.00;;;1.75;;
51358;SDS011;37448;51.588;7.248;2023-02-28T05:10:19;2.83;;;1.67;;
51358;SDS011;37448;51.588;7.248;2023-02-28T05:12:19;4.53;;;2.03;;
51358;SDS011;37448;51.588;7.248;2023-02-28T05:14:20;2.33;;;1.77;;
51358;SDS011;37448;51.588;7.248;2023-02-28T05:16:21;5.22;;;1.92;;
51358;SDS011;37448;51.588;7.248;2023-02-28T05:18:21;2.67;;;1.73;;
51358;SDS011;37448;51.588;7.248;2023-02-28T05:20:22;3.88;;;2.33;;
51358;SDS011;37448;51.588;7.248;2023-02-28T05:22:22;2.72;;;1.95;;
51358;SDS011;37448;51.588;7.248;2023-02-28T05:24:22;3.67;;;2.00;;
51358;SDS011;37448;51.588;7.248;2023-02-28T05:26:23;3.45;;;2.55;;
51358;SDS011;37448;51.588;7.248;2023-02-28T05:28:24;3.17;;;2.00;;
51358;SDS011;37448;51.588;7.248;2023-02-28T05:30:24;3.80;;;2.08;;
51358;SDS011;37448;51.588;7.248;2023-02-28T05:32:25;3.38;;;2.22;;
51358;SDS011;37448;51.588;7.248;2023-02-28T05:34:25;2.50;;;2.17;;
51358;SDS011;37448;51.588;7.248;2023-02-28T05:36:25;2.90;;;2.15;;
51358;SDS011;37448;51.588;7.248;2023-02-28T05:38:26;3.17;;;2.20;;
51358;SDS011;37448;51.588;7.248;2023-02-28T05:40:26;6.10;;;2.60;;
51358;SDS011;37448;51.588;7.248;2023-02-28T05:42:27;3.33;;;2.65;;
51358;SDS011;37448;51.588;7.248;2023-02-28T05:44:28;4.47;;;2.63;;
51358;SDS011;37448;51.588;7.248;2023-02-28T05:46:28;3.40;;;2.58;;
51358;SDS011;37448;51.588;7.248;2023-02-28T05:48:29;4.03;;;2.55;;
51358;SDS011;37448;51.588;7.248;2023-02-28T05:50:29;2.70;;;1.80;;
51358;SDS011;37448;51.588;7.248;2023-02-28T05:52:29;4.95;;;2.92;;
51358;SDS011;37448;51.588;7.248;2023-02-28T05:54:30;4.15;;;2.67;;
51358;SDS011;37448;51.588;7.248;2023-02-28T05:56:30;5.35;;;2.60;;
51358;SDS011;37448;51.588;7.248;2023-02-28T05:58:31;2.90;;;2.15;;
51358;SDS011;37448;51.588;7.248;2023-02-28T06:00:32;4.22;;;2.58;;
51358;SDS011;37448;51.588;7.248;2023-02-28T06:02:32;3.17;;;2.45;;
51358;SDS011;37448;51.588;7.248;2023-02-28T06:04:32;7.35;;;2.75;;
51358;SDS011;37448;51.588;7.248;2023-02-28T06:06:33;4.80;;;3.22;;
51358;SDS011;37448;51.588;7.248;2023-02-28T06:08:37;3.33;;;2.30;;
51358;SDS011;37448;51.588;7.248;2023-02-28T06:10:37;5.50;;;2.42;;
51358;SDS011;37448;51.588;7.248;2023-02-28T06:12:37;4.38;;;2.53;;
51358;SDS011;37448;51.588;7.248;2023-02-28T06:14:38;5.30;;;2.92;;
51358;SDS011;37448;51.588;7.248;2023-02-28T06:16:38;7.57;;;3.22;;
51358;SDS011;37448;51.588;7.248;2023-02-28T06:18:39;7.80;;;3.78;;
51358;SDS011;37448;51.588;7.248;2023-02-28T06:20:39;8.05;;;4.18;;
51358;SDS011;37448;51.588;7.248;2023-02-28T06:22:40;11.20;;;3.50;;
51358;SDS011;37448;51.588;7.248;2023-02-28T06:24:40;4.97;;;3.28;;
51358;SDS011;37448;51.588;7.248;2023-02-28T06:26:40;5.85;;;3.15;;
51358;SDS011;37448;51.588;7.248;2023-02-28T06:28:41;5.82;;;3.10;;
51358;SDS011;37448;51.588;7.248;2023-02-28T06:30:41;5.47;;;2.95;;
51358;SDS011;37448;51.588;7.248;2023-02-28T06:32:41;5.07;;;2.70;;
51358;SDS011;37448;51.588;7.248;2023-02-28T06:34:42;4.18;;;3.30;;
51358;SDS011;37448;51.588;7.248;2023-02-28T06:36:42;5.18;;;3.35;;
51358;SDS011;37448;51.588;7.248;2023-02-28T06:38:43;6.00;;;2.63;;
51358;SDS011;37448;51.588;7.248;2023-02-28T06:40:44;5.28;;;3.20;;
51358;SDS011;37448;51.588;7.248;2023-02-28T06:42:45;5.07;;;2.90;;
51358;SDS011;37448;51.588;7.248;2023-02-28T06:44:45;5.18;;;2.78;;
51358;SDS011;37448;51.588;7.248;2023-02-28T06:46:45;7.40;;;3.42;;
51358;SDS011;37448;51.588;7.248;2023-02-28T06:48:46;6.38;;;3.33;;
51358;SDS011;37448;51.588;7.248;2023-02-28T06:50:47;7.75;;;3.33;;
51358;SDS011;37448;51.588;7.248;2023-02-28T06:52:47;5.70;;;3.83;;
51358;SDS011;37448;51.588;7.248;2023-02-28T06:54:48;4.70;;;3.33;;
51358;SDS011;37448;51.588;7.248;2023-02-28T06:56:59;5.32;;;3.53;;
51358;SDS011;37448;51.588;7.248;2023-02-28T06:59:00;4.97;;;2.80;;
51358;SDS011;37448;51.588;7.248;2023-02-28T07:01:00;5.00;;;3.70;;
51358;SDS011;37448;51.588;7.248;2023-02-28T07:03:01;4.63;;;3.38;;
51358;SDS011;37448;51.588;7.248;2023-02-28T07:05:01;4.70;;;3.17;;
51358;SDS011;37448;51.588;7.248;2023-02-28T07:07:02;4.47;;;3.30;;
51358;SDS011;37448;51.588;7.248;2023-02-28T07:09:02;4.30;;;2.75;;
51358;SDS011;37448;51.588;7.248;2023-02-28T07:11:04;6.13;;;3.80;;
51358;SDS011;37448;51.588;7.248;2023-02-28T07:13:05;4.82;;;3.08;;
51358;SDS011;37448;51.588;7.248;2023-02-28T07:15:07;5.40;;;3.88;;
51358;SDS011;37448;51.588;7.248;2023-02-28T07:17:09;5.68;;;3.65;;
51358;SDS011;37448;51.588;7.248;2023-02-28T07:19:11;5.70;;;3.33;;
51358;SDS011;37448;51.588;7.248;2023-02-28T07:21:12;4.95;;;3.67;;
51358;SDS011;37448;51.588;7.248;2023-02-28T07:23:12;6.25;;;3.78;;
51358;SDS011;37448;51.588;7.248;2023-02-28T07:25:12;6.20;;;3.30;;
51358;SDS011;37448;51.588;7.248;2023-02-28T07:27:13;7.80;;;4.15;;
51358;SDS011;37448;51.588;7.248;2023-02-28T07:29:23;4.03;;;2.88;;
51358;SDS011;37448;51.588;7.248;2023-02-28T07:31:23;6.53;;;2.97;;
51358;SDS011;37448;51.588;7.248;2023-02-28T07:33:24;3.47;;;3.03;;
51358;SDS011;37448;51.588;7.248;2023-02-28T07:35:24;3.70;;;2.33;;
51358;SDS011;37448;51.588;7.248;2023-02-28T07:37:24;4.57;;;2.92;;
51358;SDS011;37448;51.588;7.248;2023-02-28T07:39:25;8.30;;;3.15;;
51358;SDS011;37448;51.588;7.248;2023-02-28T07:41:25;6.80;;;2.92;;
51358;SDS011;37448;51.588;7.248;2023-02-28T07:43:27;3.88;;;2.90;;
51358;SDS011;37448;51.588;7.248;2023-02-28T07:45:27;4.03;;;2.28;;
51358;SDS011;37448;51.588;7.248;2023-02-28T07:47:35;4.28;;;2.08;;
51358;SDS011;37448;51.588;7.248;2023-02-28T07:49:35;5.88;;;2.28;;
51358;SDS011;37448;51.588;7.248;2023-02-28T07:51:36;4.95;;;2.60;;
51358;SDS011;37448;51.588;7.248;2023-02-28T07:53:36;6.03;;;3.03;;
51358;SDS011;37448;51.588;7.248;2023-02-28T07:55:37;4.85;;;2.80;;
51358;SDS011;37448;51.588;7.248;2023-02-28T07:57:37;4.00;;;2.80;;
51358;SDS011;37448;51.588;7.248;2023-02-28T07:59:38;5.50;;;3.40;;
51358;SDS011;37448;51.588;7.248;2023-02-28T08:01:38;6.00;;;2.92;;
51358;SDS011;37448;51.588;7.248;2023-02-28T08:03:39;3.85;;;2.45;;
51358;SDS011;37448;51.588;7.248;2023-02-28T08:05:40;4.68;;;2.80;;
51358;SDS011;37448;51.588;7.248;2023-02-28T08:07:40;3.65;;;2.00;;
51358;SDS011;37448;51.588;7.248;2023-02-28T08:09:41;5.97;;;2.50;;
51358;SDS011;37448;51.588;7.248;2023-02-28T08:11:42;3.85;;;2.40;;
51358;SDS011;37448;51.588;7.248;2023-02-28T08:13:42;4.45;;;2.80;;
51358;SDS011;37448;51.588;7.248;2023-02-28T08:15:44;5.05;;;3.15;;
51358;SDS011;37448;51.588;7.248;2023-02-28T08:17:45;7.35;;;3.03;;
51358;SDS011;37448;51.588;7.248;2023-02-28T08:19:45;5.18;;;2.53;;
51358;SDS011;37448;51.588;7.248;2023-02-28T08:21:46;6.65;;;3.58;;
51358;SDS011;37448;51.588;7.248;2023-02-28T08:23:50;4.88;;;2.60;;
51358;SDS011;37448;51.588;7.248;2023-02-28T08:25:54;3.50;;;2.80;;
51358;SDS011;37448;51.588;7.248;2023-02-28T08:27:55;3.85;;;2.35;;
51358;SDS011;37448;51.588;7.248;2023-02-28T08:29:55;3.10;;;2.35;;
51358;SDS011;37448;51.588;7.248;2023-02-28T08:31:56;4.13;;;2.38;;
51358;SDS011;37448;51.588;7.248;2023-02-28T08:33:56;3.92;;;2.47;;
51358;SDS011;37448;51.588;7.248;2023-02-28T08:35:58;4.53;;;2.38;;
51358;SDS011;37448;51.588;7.248;2023-02-28T08:37:59;6.78;;;2.25;;
51358;SDS011;37448;51.588;7.248;2023-02-28T08:39:59;3.40;;;2.30;;
51358;SDS011;37448;51.588;7.248;2023-02-28T08:41:59;3.78;;;2.10;;
51358;SDS011;37448;51.588;7.248;2023-02-28T08:44:00;3.35;;;2.25;;
51358;SDS011;37448;51.588;7.248;2023-02-28T08:46:00;3.60;;;2.45;;
51358;SDS011;37448;51.588;7.248;2023-02-28T08:48:01;3.60;;;1.98;;
51358;SDS011;37448;51.588;7.248;2023-02-28T08:50:02;2.13;;;1.77;;
51358;SDS011;37448;51.588;7.248;2023-02-28T08:52:03;3.03;;;1.85;;
51358;SDS011;37448;51.588;7.248;2023-02-28T08:54:04;4.93;;;1.95;;
51358;SDS011;37448;51.588;7.248;2023-02-28T08:56:05;4.72;;;1.90;;
51358;SDS011;37448;51.588;7.248;2023-02-28T08:58:07;3.45;;;2.03;;
51358;SDS011;37448;51.588;7.248;2023-02-28T09:00:08;2.58;;;1.73;;
51358;SDS011;37448;51.588;7.248;2023-02-28T09:02:12;4.57;;;1.92;;
51358;SDS011;37448;51.588;7.248;2023-02-28T09:04:13;2.58;;;1.52;;
51358;SDS011;37448;51.588;7.248;2023-02-28T09:06:14;3.70;;;2.10;;
51358;SDS011;37448;51.588;7.248;2023-02-28T09:08:16;3.88;;;1.75;;
51358;SDS011;37448;51.588;7.248;2023-02-28T09:10:16;3.45;;;2.00;;
51358;SDS011;37448;51.588;7.248;2023-02-28T09:12:16;3.83;;;2.00;;
51358;SDS011;37448;51.588;7.248;2023-02-28T09:14:17;6.13;;;1.70;;
51358;SDS011;37448;51.588;7.248;2023-02-28T09:16:17;2.78;;;1.80;;
51358;SDS011;37448;51.588;7.248;2023-02-28T09:18:18;2.35;;;1.63;;
51358;SDS011;37448;51.588;7.248;2023-02-28T09:20:19;3.28;;;1.73;;
51358;SDS011;37448;51.588;7.248;2023-02-28T09:22:19;2.35;;;1.30;;
51358;SDS011;37448;51.588;7.248;2023-02-28T09:24:19;1.83;;;1.38;;
51358;SDS011;37448;51.588;7.248;2023-02-28T09:26:24;2.03;;;1.45;;
51358;SDS011;37448;51.588;7.248;2023-02-28T09:28:26;2.78;;;1.30;;
51358;SDS011;37448;51.588;7.248;2023-02-28T09:30:27;2.25;;;1.20;;
51358;SDS011;37448;51.588;7.248;2023-02-28T09:32:27;2.17;;;1.35;;
51358;SDS011;37448;51.588;7.248;2023-02-28T09:34:28;2.33;;;1.63;;
51358;SDS011;37448;51.588;7.248;2023-02-28T09:36:30;3.00;;;1.30;;
51358;SDS011;37448;51.588;7.248;2023-02-28T09:38:31;2.05;;;1.38;;
51358;SDS011;37448;51.588;7.248;2023-02-28T09:40:31;2.13;;;1.30;;
51358;SDS011;37448;51.588;7.248;2023-02-28T09:42:36;2.80;;;1.50;;
51358;SDS011;37448;51.588;7.248;2023-02-28T09:44:38;2.55;;;1.42;;
51358;SDS011;37448;51.588;7.248;2023-02-28T09:46:45;3.30;;;1.83;;
51358;SDS011;37448;51.588;7.248;2023-02-28T09:48:48;2.47;;;1.33;;
51358;SDS011;37448;51.588;7.248;2023-02-28T09:50:51;3.45;;;1.70;;
51358;SDS011;37448;51.588;7.248;2023-02-28T09:52:55;2.75;;;1.67;;
51358;SDS011;37448;51.588;7.248;2023-02-28T09:54:59;3.17;;;1.30;;
51358;SDS011;37448;51.588;7.248;2023-02-28T09:59:39;4.47;;;2.00;;
51358;SDS011;37448;51.588;7.248;2023-02-28T10:02:02;3.25;;;1.35;;
51358;SDS011;37448;51.588;7.248;2023-02-28T10:04:18;1.83;;;1.40;;
51358;SDS011;37448;51.588;7.248;2023-02-28T10:06:42;2.85;;;1.48;;
51358;SDS011;37448;51.588;7.248;2023-02-28T10:10:57;2.50;;;1.55;;
51358;SDS011;37448;51.588;7.248;2023-02-28T10:13:01;2.17;;;1.55;;
51358;SDS011;37448;51.588;7.248;2023-02-28T10:15:07;3.60;;;1.80;;
51358;SDS011;37448;51.588;7.248;2023-02-28T10:17:19;2.25;;;1.85;;
51358;SDS011;37448;51.588;7.248;2023-02-28T10:19:26;3.40;;;1.48;;
51358;SDS011;37448;51.588;7.248;2023-02-28T10:21:43;5.78;;;1.70;;
51358;SDS011;37448;51.588;7.248;2023-02-28T10:23:49;2.92;;;1.88;;
51358;SDS011;37448;51.588;7.248;2023-02-28T10:26:00;3.28;;;1.63;;
51358;SDS011;37448;51.588;7.248;2023-02-28T10:28:12;2.65;;;1.38;;
51358;SDS011;37448;51.588;7.248;2023-02-28T10:30:14;2.53;;;1.33;;
51358;SDS011;37448;51.588;7.248;2023-02-28T10:32:17;4.57;;;1.20;;
51358;SDS011;37448;51.588;7.248;2023-02-28T10:34:19;1.45;;;1.10;;
51358;SDS011;37448;51.588;7.248;2023-02-28T10:36:20;1.85;;;1.00;;
51358;SDS011;37448;51.588;7.248;2023-02-28T10:38:22;3.05;;;0.95;;
51358;SDS011;37448;51.588;7.248;2023-02-28T10:40:28;2.05;;;1.00;;
51358;SDS011;37448;51.588;7.248;2023-02-28T10:44:38;2.28;;;0.93;;
51358;SDS011;37448;51.588;7.248;2023-02-28T10:46:39;1.27;;;0.80;;
51358;SDS011;37448;51.588;7.248;2023-02-28T10:48:45;1.85;;;0.90;;
51358;SDS011;37448;51.588;7.248;2023-02-28T10:50:57;2.55;;;1.30;;
51358;SDS011;37448;51.588;7.248;2023-02-28T10:53:07;1.58;;;0.88;;
51358;SDS011;37448;51.588;7.248;2023-02-28T10:55:14;1.60;;;0.95;;
51358;SDS011;37448;51.588;7.248;2023-02-28T10:57:20;3.10;;;1.02;;
51358;SDS011;37448;51.588;7.248;2023-02-28T10:59:26;1.52;;;1.13;;
51358;SDS011;37448;51.588;7.248;2023-02-28T11:03:33;2.17;;;1.17;;
51358;SDS011;37448;51.588;7.248;2023-02-28T11:05:35;2.08;;;1.10;;
51358;SDS011;37448;51.588;7.248;2023-02-28T11:07:36;1.48;;;1.33;;
51358;SDS011;37448;51.588;7.248;2023-02-28T11:09:39;1.05;;;0.95;;
51358;SDS011;37448;51.588;7.248;2023-02-28T11:11:42;1.65;;;1.20;;
51358;SDS011;37448;51.588;7.248;2023-02-28T11:13:45;3.22;;;1.20;;
51358;SDS011;37448;51.588;7.248;2023-02-28T11:15:51;2.45;;;1.20;;
51358;SDS011;37448;51.588;7.248;2023-02-28T11:17:55;1.95;;;0.98;;
51358;SDS011;37448;51.588;7.248;2023-02-28T11:20:02;3.15;;;1.25;;
51358;SDS011;37448;51.588;7.248;2023-02-28T11:22:07;2.33;;;1.30;;
51358;SDS011;37448;51.588;7.248;2023-02-28T11:24:24;2.00;;;1.20;;
51358;SDS011;37448;51.588;7.248;2023-02-28T11:26:44;3.08;;;1.20;;
51358;SDS011;37448;51.588;7.248;2023-02-28T11:28:45;2.55;;;1.35;;
51358;SDS011;37448;51.588;7.248;2023-02-28T11:30:46;1.80;;;1.10;;
51358;SDS011;37448;51.588;7.248;2023-02-28T11:37:36;2.25;;;1.25;;
51358;SDS011;37448;51.588;7.248;2023-02-28T11:39:38;4.40;;;2.70;;
51358;SDS011;37448;51.588;7.248;2023-02-28T11:41:53;3.20;;;2.30;;
51358;SDS011;37448;51.588;7.248;2023-02-28T11:51:33;2.30;;;1.02;;
51358;SDS011;37448;51.588;7.248;2023-02-28T11:53:42;3.30;;;1.63;;
51358;SDS011;37448;51.588;7.248;2023-02-28T12:08:08;4.95;;;1.50;;
51358;SDS011;37448;51.588;7.248;2023-02-28T12:11:10;2.53;;;2.00;;
51358;SDS011;37448;51.588;7.248;2023-02-28T12:23:10;2.55;;;1.65;;
51358;SDS011;37448;51.588;7.248;2023-02-28T12:25:32;1.90;;;1.30;;
51358;SDS011;37448;51.588;7.248;2023-02-28T12:27:56;5.40;;;2.88;;
51358;SDS011;37448;51.588;7.248;2023-02-28T12:29:58;2.75;;;1.77;;
51358;SDS011;37448;51.588;7.248;2023-02-28T12:32:06;2.33;;;2.03;;
51358;SDS011;37448;51.588;7.248;2023-02-28T12:34:29;3.17;;;1.80;;
51358;SDS011;37448;51.588;7.248;2023-02-28T12:36:33;1.65;;;1.50;;
51358;SDS011;37448;51.588;7.248;2023-02-28T12:38:40;2.67;;;2.00;;
51358;SDS011;37448;51.588;7.248;2023-02-28T12:40:48;4.57;;;1.75;;
51358;SDS011;37448;51.588;7.248;2023-02-28T12:42:58;5.65;;;2.40;;
51358;SDS011;37448;51.588;7.248;2023-02-28T12:45:08;2.70;;;2.40;;
51358;SDS011;37448;51.588;7.248;2023-02-28T12:47:14;4.13;;;2.70;;
51358;SDS011;37448;51.588;7.248;2023-02-28T12:51:37;4.47;;;2.50;;
51358;SDS011;37448;51.588;7.248;2023-02-28T13:00:35;2.42;;;1.58;;
51358;SDS011;37448;51.588;7.248;2023-02-28T13:10:08;1.60;;;1.33;;
51358;SDS011;37448;51.588;7.248;2023-02-28T13:12:13;1.73;;;1.60;;
51358;SDS011;37448;51.588;7.248;2023-02-28T13:19:07;3.13;;;1.38;;
51358;SDS011;37448;51.588;7.248;2023-02-28T13:23:40;2.97;;;1.48;;
51358;SDS011;37448;51.588;7.248;2023-02-28T13:25:57;3.78;;;2.55;;
51358;SDS011;37448;51.588;7.248;2023-02-28T13:28:02;1.80;;;1.67;;
51358;SDS011;37448;51.588;7.248;2023-02-28T13:32:46;2.15;;;1.95;;
51358;SDS011;37448;51.588;7.248;2023-02-28T13:35:35;2.35;;;2.15;;
51358;SDS011;37448;51.588;7.248;2023-02-28T13:37:47;4.68;;;3.17;;
51358;SDS011;37448;51.588;7.248;2023-02-28T13:39:50;4.38;;;2.78;;
51358;SDS011;37448;51.588;7.248;2023-02-28T13:42:21;4.40;;;2.00;;
51358;SDS011;37448;51.588;7.248;2023-02-28T13:44:26;2.05;;;1.73;;
51358;SDS011;37448;51.588;7.248;2023-02-28T13:46:27;5.13;;;2.28;;
51358;SDS011;37448;51.588;7.248;2023-02-28T13:48:28;2.38;;;2.10;;
51358;SDS011;37448;51.588;7.248;2023-02-28T13:52:34;6.20;;;2.95;;
51358;SDS011;37448;51.588;7.248;2023-02-28T13:57:01;3.03;;;2.17;;
51358;SDS011;37448;51.588;7.248;2023-02-28T13:59:12;2.90;;;2.40;;
51358;SDS011;37448;51.588;7.248;2023-02-28T14:01:31;5.47;;;2.53;;
51358;SDS011;37448;51.588;7.248;2023-02-28T14:06:35;3.67;;;2.08;;
51358;SDS011;37448;51.588;7.248;2023-02-28T14:08:42;4.13;;;2.95;;
51358;SDS011;37448;51.588;7.248;2023-02-28T14:10:51;2.22;;;2.00;;
51358;SDS011;37448;51.588;7.248;2023-02-28T14:17:32;3.05;;;1.95;;
51358;SDS011;37448;51.588;7.248;2023-02-28T14:19:33;3.72;;;1.95;;
51358;SDS011;37448;51.588;7.248;2023-02-28T14:21:38;2.78;;;1.85;;